createdAt,value
2019-04-23T00:01:07.833Z,37.30
2019-04-23T00:03:32.107Z,37.50
2019-04-23T00:06:06.695Z,38.50
2019-04-23T00:08:46.239Z,39.60
2019-04-23T00:11:08.093Z,39.70
2019-04-23T00:16:18.681Z,39.30
2019-04-23T00:18:42.224Z,39.50
2019-04-23T00:21:43.076Z,39.60
2019-04-23T00:24:46.564Z,40.10
2019-04-23T00:27:15.438Z,39.80
2019-04-23T00:29:38.105Z,39.90
2019-04-23T00:32:10.342Z,40.00
2019-04-23T00:34:41.430Z,40.10
2019-04-23T00:37:18.750Z,40.10
2019-04-23T00:39:46.784Z,40.00
2019-04-23T00:42:20.268Z,40.00
2019-04-23T00:47:22.876Z,40.10
2019-04-23T00:50:03.878Z,40.20
2019-04-23T00:52:26.454Z,40.40
2019-04-23T00:54:57.981Z,40.50
2019-04-23T00:57:29.422Z,40.50
2019-04-23T01:00:03.400Z,40.50
2019-04-23T01:07:42.964Z,41.10
2019-04-23T01:10:13.949Z,41.00
2019-04-23T01:12:51.577Z,41.00
2019-04-23T01:15:24.253Z,41.40
2019-04-23T01:17:53.369Z,41.40
2019-04-23T01:20:37.080Z,41.60
2019-04-23T01:22:46.836Z,41.90
2019-04-23T01:25:34.173Z,42.00
2019-04-23T01:28:23.537Z,42.30
2019-04-23T01:30:55.361Z,42.20
2019-04-23T01:33:32.712Z,42.20
2019-04-23T01:36:09.627Z,42.50
2019-04-23T01:38:35.494Z,43.00
2019-04-23T01:41:06.237Z,42.50
2019-04-23T01:43:36.570Z,42.40
2019-04-23T01:46:07.590Z,42.50
2019-04-23T01:48:43.306Z,42.60
2019-04-23T01:51:02.344Z,42.90
2019-04-23T01:53:45.475Z,42.80
2019-04-23T01:56:20.320Z,42.90
2019-04-23T01:58:46.995Z,43.00
2019-04-23T02:01:27.770Z,43.10
2019-04-23T02:03:57.696Z,43.10
2019-04-23T02:06:25.230Z,43.20
2019-04-23T02:08:58.577Z,43.20
2019-04-23T02:11:26.355Z,43.30
2019-04-23T02:14:05.422Z,43.50
2019-04-23T02:19:11.487Z,43.60
2019-04-23T02:21:39.885Z,43.60
2019-04-23T02:24:12.043Z,43.90
2019-04-23T02:26:43.479Z,43.60
2019-04-23T02:29:28.769Z,43.70
2019-04-23T02:39:46.442Z,44.30
2019-04-23T02:42:19.124Z,44.30
2019-04-23T02:44:31.967Z,45.00
2019-04-23T02:47:23.579Z,44.60
2019-04-23T02:54:50.634Z,44.50
2019-04-23T02:57:20.220Z,44.40
2019-04-23T03:00:07.874Z,44.80
2019-04-23T03:07:33.315Z,44.70
2019-04-23T03:12:31.850Z,45.00
2019-04-23T03:18:25.755Z,45.30
2019-04-23T03:21:19.149Z,45.30
2019-04-23T03:23:46.710Z,45.50
2019-04-23T03:26:25.167Z,45.40
2019-04-23T03:33:08.547Z,45.60
2019-04-23T03:37:02.501Z,45.80
2019-04-23T03:38:48.791Z,46.00
2019-04-23T03:41:43.908Z,45.70
2019-04-23T03:44:09.316Z,46.00
2019-04-23T03:51:34.106Z,46.50
2019-04-23T03:54:20.933Z,46.60
2019-04-23T03:56:52.512Z,47.40
2019-04-23T03:59:11.339Z,46.80
2019-04-23T04:09:32.287Z,47.00
2019-04-23T04:11:34.672Z,46.90
2019-04-23T04:14:32.169Z,46.70
2019-04-23T04:16:59.542Z,47.00
2019-04-23T04:19:32.428Z,47.50
2019-04-23T04:21:58.394Z,47.10
2019-04-23T04:24:39.938Z,47.60
2019-04-23T04:29:40.388Z,47.90
2019-04-23T04:32:31.648Z,48.10
2019-04-23T04:35:07.396Z,48.00
2019-04-23T04:40:03.571Z,48.20
2019-04-23T04:42:10.399Z,48.40
2019-04-23T04:47:21.182Z,48.80
2019-04-23T04:49:58.407Z,48.80
2019-04-23T04:52:34.949Z,48.80
2019-04-23T04:54:49.746Z,48.70
2019-04-23T05:02:41.806Z,48.80
2019-04-23T05:05:31.412Z,49.20
2019-04-23T05:07:34.055Z,49.20
2019-04-23T05:10:16.577Z,49.20
2019-04-23T05:15:22.151Z,49.60
2019-04-23T05:18:00.203Z,49.70
2019-04-23T05:20:20.457Z,49.60
2019-04-23T05:23:03.928Z,49.40
2019-04-23T05:25:17.664Z,49.60
2019-04-23T05:28:05.954Z,50.20
2019-04-23T05:32:56.208Z,49.60
2019-04-23T05:35:46.663Z,49.50
2019-04-23T05:43:03.259Z,49.40
2019-04-23T05:45:35.040Z,49.30
2019-04-23T05:48:20.065Z,49.50
2019-04-23T05:50:59.171Z,49.40
2019-04-23T05:53:18.665Z,49.30
2019-04-23T05:55:55.460Z,49.20
2019-04-23T05:58:28.771Z,49.10
2019-04-23T06:01:49.911Z,49.00
2019-04-23T06:04:03.718Z,49.10
2019-04-23T06:09:28.634Z,49.10
2019-04-23T06:14:18.690Z,48.80
2019-04-23T06:16:49.925Z,48.90
2019-04-23T06:19:16.855Z,49.30
2019-04-23T06:22:00.417Z,49.30
2019-04-23T06:27:05.205Z,48.80
2019-04-23T06:29:41.509Z,49.00
2019-04-23T06:34:38.161Z,49.00
2019-04-23T06:37:02.021Z,48.80
2019-04-23T06:42:18.055Z,48.30
2019-04-23T06:44:45.782Z,48.50
2019-04-23T06:47:29.280Z,48.50
2019-04-23T06:49:50.937Z,48.70
2019-04-23T06:55:04.634Z,49.00
2019-04-23T06:57:25.556Z,48.60
2019-04-23T07:00:02.702Z,48.20
2019-04-23T07:02:34.416Z,48.40
2019-04-23T07:07:55.196Z,48.10
2019-04-23T07:10:06.049Z,47.00
2019-04-23T07:12:44.577Z,46.70
2019-04-23T07:15:24.883Z,46.30
2019-04-23T07:17:41.059Z,46.30
2019-04-23T07:20:21.498Z,46.70
2019-04-23T07:22:49.987Z,46.60
2019-04-23T07:25:20.515Z,46.40
2019-04-23T07:27:47.385Z,45.90
2019-04-23T07:30:20.937Z,46.60
2019-04-23T07:32:57.241Z,45.60
2019-04-23T07:35:24.583Z,45.60
2019-04-23T07:38:08.817Z,45.70
2019-04-23T07:40:37.465Z,45.50
2019-04-23T07:43:20.204Z,45.00
2019-04-23T07:46:16.599Z,44.70
2019-04-23T07:48:37.156Z,44.50
2019-04-23T07:51:14.509Z,44.70
2019-04-23T07:56:27.975Z,44.70
2019-04-23T07:58:44.596Z,44.40
2019-04-23T08:01:17.527Z,44.50
2019-04-23T08:03:55.342Z,43.70
2019-04-23T08:06:25.491Z,44.20
2019-04-23T08:08:56.547Z,44.10
2019-04-23T08:16:34.427Z,43.70
2019-04-23T08:19:05.488Z,43.50
2019-04-23T08:21:32.070Z,43.70
2019-04-23T08:24:38.041Z,44.10
2019-04-23T08:27:13.063Z,43.80
2019-04-23T08:29:55.689Z,43.50
2019-04-23T08:34:58.850Z,43.30
2019-04-23T08:39:58.513Z,43.00
2019-04-23T08:42:38.531Z,42.80
2019-04-23T08:45:31.366Z,42.70
2019-04-23T08:51:28.286Z,41.50
2019-04-23T08:53:47.648Z,42.20
2019-04-23T08:56:22.781Z,42.30
2019-04-23T08:58:36.830Z,41.80
2019-04-23T09:01:13.476Z,41.20
2019-04-23T09:03:40.916Z,41.90
2019-04-23T09:08:42.129Z,41.50
2019-04-23T09:11:35.759Z,41.00
2019-04-23T09:14:00.834Z,41.20
2019-04-23T09:16:31.531Z,41.50
2019-04-23T09:19:04.096Z,40.80
2019-04-23T09:21:27.637Z,40.20
2019-04-23T09:24:00.338Z,40.30
2019-04-23T09:26:32.982Z,40.60
2019-04-23T09:29:05.970Z,41.30
2019-04-23T09:32:15.120Z,41.00
2019-04-23T09:34:55.593Z,39.80
2019-04-23T09:37:42.247Z,39.90
2019-04-23T09:40:51.157Z,40.40
2019-04-23T09:43:19.738Z,39.70
2019-04-23T09:48:51.140Z,39.40
2019-04-23T09:51:17.284Z,39.30
2019-04-23T09:53:52.993Z,39.50
2019-04-23T09:56:26.896Z,39.30
2019-04-23T09:58:59.428Z,38.20
2019-04-23T10:01:25.999Z,37.90
2019-04-23T10:03:49.348Z,38.10
2019-04-23T10:06:14.872Z,36.40
2019-04-23T10:08:44.985Z,36.30
2019-04-23T10:11:11.819Z,37.60
2019-04-23T10:13:42.859Z,36.60
2019-04-23T10:16:15.776Z,36.20
2019-04-23T10:18:46.814Z,36.00
2019-04-23T10:21:17.576Z,36.80
2019-04-23T10:23:49.483Z,36.50
2019-04-23T10:26:20.031Z,36.80
2019-04-23T10:28:58.208Z,36.40
2019-04-23T10:31:31.537Z,36.20
2019-04-23T10:34:04.376Z,36.30
2019-04-23T10:36:36.637Z,36.20
2019-04-23T10:39:14.727Z,36.70
2019-04-23T10:41:45.996Z,35.30
2019-04-23T10:44:25.476Z,34.80
2019-04-23T10:47:38.595Z,35.20
2019-04-23T10:56:24.750Z,34.90
2019-04-23T10:58:45.553Z,34.50
2019-04-23T11:01:21.278Z,34.10
2019-04-23T11:04:11.915Z,33.60
2019-04-23T11:06:32.539Z,33.20
2019-04-23T11:09:11.355Z,33.50
2019-04-23T11:11:34.466Z,34.20
2019-04-23T11:14:09.691Z,32.70
2019-04-23T11:19:20.483Z,33.10
2019-04-23T11:21:58.484Z,32.90
2019-04-23T11:24:31.463Z,32.40
2019-04-23T11:26:52.959Z,31.50
2019-04-23T11:29:33.845Z,31.00
2019-04-23T11:32:11.795Z,31.60
2019-04-23T11:37:16.449Z,30.10
2019-04-23T11:39:44.945Z,30.20
2019-04-23T11:42:14.240Z,29.90
2019-04-23T11:44:45.892Z,29.20
2019-04-23T11:47:47.053Z,29.40
2019-04-23T11:52:30.691Z,28.10
2019-04-23T11:57:54.373Z,26.60
2019-04-23T12:00:06.146Z,26.20
2019-04-23T12:06:03.676Z,26.80
2019-04-23T12:11:39.817Z,26.90
2019-04-23T12:14:30.238Z,26.50
2019-04-23T12:17:17.236Z,27.40
2019-04-23T12:19:53.098Z,26.40
2019-04-23T12:25:02.406Z,26.30
2019-04-23T12:27:22.577Z,26.40
2019-04-23T12:40:15.117Z,25.10
2019-04-23T12:50:41.690Z,24.10
2019-04-23T12:52:51.028Z,23.30
2019-04-23T12:55:41.828Z,23.50
2019-04-23T13:00:33.914Z,23.20
2019-04-23T13:03:02.687Z,22.70
2019-04-23T13:05:31.856Z,22.30
2019-04-23T13:08:10.587Z,22.20
2019-04-23T13:10:42.300Z,22.40
2019-04-23T13:15:40.538Z,21.30
2019-04-23T13:18:19.357Z,21.70
2019-04-23T13:20:42.193Z,21.50
2019-04-23T13:23:22.175Z,21.40
2019-04-23T13:25:57.518Z,21.70
2019-04-23T13:28:33.740Z,21.40
2019-04-23T13:31:07.622Z,21.50
2019-04-23T13:41:30.022Z,22.10
2019-04-23T13:43:45.737Z,21.60
2019-04-23T13:46:17.289Z,21.90
2019-04-23T13:48:47.021Z,21.90
2019-04-23T13:53:57.352Z,21.20
2019-04-23T13:59:16.124Z,21.60
2019-04-23T14:01:35.490Z,21.80
2019-04-23T14:04:24.758Z,22.00
2019-04-23T14:06:52.168Z,22.40
2019-04-23T14:09:31.875Z,22.50
2019-04-23T14:11:54.894Z,22.80
2019-04-23T14:14:47.786Z,22.40
2019-04-23T14:17:08.744Z,22.60
2019-04-23T14:19:31.953Z,22.60
2019-04-23T14:22:21.041Z,22.80
2019-04-23T14:24:57.650Z,22.40
2019-04-23T14:27:14.958Z,22.40
2019-04-23T14:29:52.226Z,23.10
2019-04-23T14:32:24.756Z,23.20
2019-04-23T14:35:01.787Z,23.50
2019-04-23T14:37:18.075Z,23.60
2019-04-23T14:39:52.738Z,24.60
2019-04-23T14:42:33.569Z,24.50
2019-04-23T14:45:17.247Z,24.30
2019-04-23T14:48:00.948Z,23.80
2019-04-23T14:50:23.999Z,23.30
2019-04-23T14:52:38.797Z,22.40
2019-04-23T15:00:22.165Z,21.00
2019-04-23T15:02:52.008Z,20.50
2019-04-23T15:05:21.689Z,20.50
2019-04-23T15:07:51.278Z,19.90
2019-04-23T15:10:24.500Z,19.40
2019-04-23T15:13:01.756Z,19.20
2019-04-23T15:15:24.007Z,18.80
2019-04-23T15:18:09.291Z,18.90
2019-04-23T15:20:39.276Z,19.20
2019-04-23T15:23:25.569Z,19.00
2019-04-23T15:26:47.823Z,18.60
2019-04-23T15:30:59.034Z,19.70
2019-04-23T15:33:26.064Z,19.90
2019-04-23T15:40:59.052Z,20.10
2019-04-23T15:43:34.360Z,20.10
2019-04-23T15:46:12.894Z,20.00
2019-04-23T15:48:49.857Z,19.70
2019-04-23T15:51:30.902Z,19.50
2019-04-23T15:53:51.002Z,19.10
2019-04-23T16:01:34.053Z,19.00
2019-04-23T16:03:33.910Z,18.80
2019-04-23T16:06:06.469Z,18.40
2019-04-23T16:09:11.146Z,17.60
2019-04-23T16:11:44.029Z,18.00
2019-04-23T16:16:45.770Z,18.40
2019-04-23T16:19:47.193Z,18.50
2019-04-23T16:22:16.643Z,19.10
2019-04-23T16:24:52.965Z,19.30
2019-04-23T16:27:11.152Z,19.60
2019-04-23T16:32:28.367Z,20.60
2019-04-23T16:35:12.028Z,21.30
2019-04-23T16:37:39.178Z,22.30
2019-04-23T16:40:13.545Z,22.80
2019-04-23T16:42:39.981Z,23.50
2019-04-23T16:45:12.529Z,23.80
2019-04-23T16:47:36.528Z,24.30
2019-04-23T16:50:18.348Z,25.00
2019-04-23T16:52:42.497Z,25.70
2019-04-23T16:55:16.640Z,26.10
2019-04-23T16:57:54.097Z,26.00
2019-04-23T17:03:07.245Z,27.50
2019-04-23T17:05:34.019Z,27.80
2019-04-23T17:08:31.094Z,28.10
2019-04-23T17:10:49.059Z,28.20
2019-04-23T17:13:14.239Z,28.80
2019-04-23T17:15:53.339Z,28.90
2019-04-23T17:18:20.165Z,29.30
2019-04-23T17:20:51.913Z,29.60
2019-04-23T17:23:36.148Z,29.90
2019-04-23T17:26:13.753Z,30.40
2019-04-23T17:31:28.012Z,31.20
2019-04-23T17:33:49.683Z,31.50
2019-04-23T17:36:45.853Z,31.80
2019-04-23T17:39:18.195Z,32.00
2019-04-23T17:42:08.297Z,32.40
2019-04-23T17:44:46.983Z,32.60
2019-04-23T17:47:22.423Z,33.10
2019-04-23T17:50:03.586Z,33.40
2019-04-23T17:52:28.016Z,34.30
2019-04-23T17:55:09.292Z,34.10
2019-04-23T18:02:55.157Z,34.70
2019-04-23T18:08:15.410Z,35.10
2019-04-23T18:10:34.054Z,35.50
2019-04-23T18:12:53.358Z,35.80
2019-04-23T18:15:17.725Z,36.40
2019-04-23T18:18:02.197Z,36.60
2019-04-23T18:20:56.006Z,36.60
2019-04-23T18:23:28.385Z,36.60
2019-04-23T18:25:59.596Z,36.80
2019-04-23T18:28:29.695Z,37.00
2019-04-23T18:31:31.705Z,37.70
2019-04-23T18:36:32.777Z,38.10
2019-04-23T18:39:14.387Z,38.40
2019-04-23T18:41:43.032Z,39.00
2019-04-23T18:44:24.862Z,39.30
2019-04-23T18:46:49.035Z,40.00
2019-04-23T18:49:28.262Z,40.60
2019-04-23T18:51:57.811Z,40.50
2019-04-23T18:54:29.649Z,40.60
2019-04-23T19:02:45.398Z,41.10
2019-04-23T19:05:15.116Z,41.50
2019-04-23T19:08:09.602Z,41.60
2019-04-23T19:11:10.449Z,41.80
2019-04-23T19:13:39.861Z,41.90
2019-04-23T19:16:07.226Z,42.10
2019-04-23T19:23:51.195Z,42.80
2019-04-23T19:26:41.760Z,43.10
2019-04-23T19:28:55.467Z,44.00
2019-04-23T19:31:42.742Z,43.80
2019-04-23T19:39:19.324Z,44.70
2019-04-23T19:41:57.466Z,44.70
2019-04-23T19:44:18.394Z,45.00
2019-04-23T19:49:38.994Z,46.90
2019-04-23T19:51:53.325Z,47.90
2019-04-23T19:57:01.994Z,48.40
2019-04-23T19:59:43.075Z,48.90
2019-04-23T20:02:10.084Z,49.10
2019-04-23T20:04:41.041Z,49.40
2019-04-23T20:12:21.459Z,50.20
2019-04-23T20:14:47.699Z,50.50
2019-04-23T20:17:31.656Z,50.70
2019-04-23T20:19:48.590Z,51.60
2019-04-23T20:22:33.918Z,50.60
2019-04-23T20:25:10.217Z,51.50
2019-04-23T20:27:42.880Z,51.80
2019-04-23T20:35:46.762Z,53.10
2019-04-23T20:43:23.760Z,55.30
2019-04-23T20:48:30.854Z,56.90
2019-04-23T20:50:50.738Z,57.20
2019-04-23T20:53:31.173Z,57.00
2019-04-23T20:58:44.025Z,58.20
2019-04-23T21:01:22.262Z,57.70
2019-04-23T21:06:14.695Z,58.10
2019-04-23T21:09:10.074Z,58.20
2019-04-23T21:11:24.166Z,58.40
2019-04-23T21:14:03.608Z,58.40
2019-04-23T21:16:30.512Z,58.50
2019-04-23T21:18:57.160Z,58.70
2019-04-23T21:21:33.536Z,59.00
2019-04-23T21:24:03.895Z,59.50
2019-04-23T21:26:35.340Z,59.50
2019-04-23T21:29:03.982Z,60.00
2019-04-23T21:37:06.229Z,60.70
2019-04-23T21:40:15.418Z,61.00
2019-04-23T21:42:48.994Z,62.10
2019-04-23T21:45:19.748Z,61.80
2019-04-23T21:47:58.886Z,62.40
2019-04-23T21:55:36.482Z,63.40
2019-04-23T21:58:01.353Z,63.80
2019-04-23T22:00:25.835Z,64.30
2019-04-23T22:03:04.529Z,64.60
2019-04-23T22:05:39.985Z,64.80
2019-04-23T22:08:10.405Z,65.00
2019-04-23T22:10:47.230Z,64.90
2019-04-23T22:19:05.427Z,65.60
2019-04-23T22:26:28.460Z,66.70
2019-04-23T22:31:40.320Z,66.80
2019-04-23T22:39:10.114Z,68.30
2019-04-23T22:41:43.726Z,68.10
2019-04-23T22:44:12.055Z,68.90
2019-04-23T22:46:52.123Z,69.20
2019-04-23T22:51:57.626Z,71.30
2019-04-23T22:54:24.069Z,71.60
2019-04-23T22:56:54.242Z,72.20
2019-04-23T23:02:20.574Z,71.90
2019-04-23T23:05:02.396Z,72.70
2019-04-23T23:07:28.855Z,73.40
2019-04-23T23:10:00.796Z,73.30
2019-04-23T23:12:34.579Z,73.30
2019-04-23T23:15:01.452Z,73.30
2019-04-23T23:17:30.735Z,75.20
2019-04-23T23:22:41.065Z,74.30
2019-04-23T23:25:11.465Z,74.50
2019-04-23T23:27:40.463Z,74.80
2019-04-23T23:30:18.341Z,76.00
2019-04-23T23:32:51.795Z,75.70
2019-04-23T23:37:51.856Z,75.40
2019-04-23T23:40:23.879Z,75.90
2019-04-23T23:43:08.150Z,75.30
2019-04-23T23:45:52.336Z,75.60
2019-04-23T23:48:09.634Z,75.60
2019-04-23T23:50:46.031Z,76.20
2019-04-23T23:53:23.277Z,76.10
2019-04-23T23:55:55.391Z,76.70
